PWSweather.com
Personal Weather Stations
Station Observations
KCTHAMDEN
Dunbar Hill, Hamden, CT 06514

Dunbar HillHamden, CT 06514

Lat: 41.365437, Lon: -72.956532

Elevation: 200

Station Type: Davis Vantage Pro2+

www.hamdenweather.com

High Low Average
Temperature 75.0°F23.9°F 67.4°F19.7°F 71.8°F22.1°F
Dew Point 66.0°F18.9°F 54.4°F12.4°F 62.8°F17.1°F
Winds 9.5 mph N15.3 mph N 0.9 mph 1.4 mph 3.8 mph 6.1 mph
Wind Gusts 17.0 mph27.4 mph 1.0 mph1.6 mph 7.0 mph11.3 mph
Humidity 80% 63% 74%
Pressure 30.02 in1016.60 in 29.90 in1012.50 in -
Precipitation 0.00 in0.00 in - -
Hour Temp Dew Point Humidity Winds Wind Gusts Pressure Precip Precip Rate Daily Precip Total
12:00 AM 71.7°F22.1°C 65.2°F18.4°C 80% 3.1 mph W5.0 kmh W 3.0 mph4.8 kmh 29.90 in1012.5 mb - 0.00 in0.0 mm 0.00 in0.0 mm
12:15 AM 71.9°F22.2°C 65.0°F18.3°C 79% 5.3 mph NNE8.5 kmh NNE 8.0 mph12.9 kmh 29.90 in1012.5 mb - 0.00 in0.0 mm 0.00 in0.0 mm
12:30 AM 72.2°F22.3°C 65.0°F18.3°C 78% 5.0 mph NW8.0 kmh NW 6.0 mph9.7 kmh 29.90 in1012.5 mb - 0.00 in0.0 mm 0.00 in0.0 mm
12:45 AM 72.2°F22.3°C 65.0°F18.3°C 78% 5.0 mph N8.0 kmh N 9.0 mph14.5 kmh 29.90 in1012.5 mb - 0.00 in0.0 mm 0.00 in0.0 mm
01:00 AM 72.3°F22.4°C 65.0°F18.3°C 78% 4.3 mph NW6.9 kmh NW 8.0 mph12.9 kmh 29.90 in1012.5 mb - 0.00 in0.0 mm 0.00 in0.0 mm
01:15 AM 72.3°F22.4°C 65.1°F18.4°C 78% 4.0 mph N6.4 kmh N 6.0 mph9.7 kmh 29.90 in1012.5 mb - 0.00 in0.0 mm 0.00 in0.0 mm
01:30 AM 72.3°F22.4°C 65.0°F18.3°C 78% 1.8 mph NNW2.9 kmh NNW 5.0 mph8.0 kmh 29.90 in1012.5 mb - 0.00 in0.0 mm 0.00 in0.0 mm
01:45 AM 72.0°F22.2°C 64.8°F18.2°C 78% 5.1 mph NW8.2 kmh NW 7.0 mph11.3 kmh 29.91 in1012.9 mb - 0.00 in0.0 mm 0.00 in0.0 mm
02:00 AM 71.7°F22.1°C 64.5°F18.1°C 78% 1.5 mph NNE2.4 kmh NNE 3.0 mph4.8 kmh 29.91 in1012.9 mb - 0.00 in0.0 mm 0.00 in0.0 mm
02:15 AM 71.6°F22.0°C 64.4°F18.0°C 78% 5.5 mph N8.9 kmh N 9.0 mph14.5 kmh 29.91 in1012.9 mb - 0.00 in0.0 mm 0.00 in0.0 mm
02:30 AM 71.5°F21.9°C 64.6°F18.1°C 79% 3.0 mph WNW4.8 kmh WNW 5.0 mph8.0 kmh 29.91 in1012.9 mb - 0.00 in0.0 mm 0.00 in0.0 mm
02:45 AM 71.5°F21.9°C 64.6°F18.1°C 79% 2.3 mph N3.7 kmh N 6.0 mph9.7 kmh 29.91 in1012.9 mb - 0.00 in0.0 mm 0.00 in0.0 mm
03:00 AM 71.4°F21.9°C 64.6°F18.1°C 79% 4.7 mph NW7.6 kmh NW 10.0 mph16.1 kmh 29.91 in1012.9 mb - 0.00 in0.0 mm 0.00 in0.0 mm
03:15 AM 71.6°F22.0°C 64.7°F18.2°C 79% 3.7 mph N6.0 kmh N 9.0 mph14.5 kmh 29.91 in1012.9 mb - 0.00 in0.0 mm 0.00 in0.0 mm
03:30 AM 71.7°F22.1°C 64.5°F18.1°C 78% 3.7 mph N6.0 kmh N 8.0 mph12.9 kmh 29.91 in1012.9 mb - 0.00 in0.0 mm 0.00 in0.0 mm
03:45 AM 71.7°F22.1°C 64.5°F18.1°C 78% 3.6 mph E5.8 kmh E 8.0 mph12.9 kmh 29.92 in1013.2 mb - 0.00 in0.0 mm 0.00 in0.0 mm
04:00 AM 71.7°F22.1°C 64.8°F18.2°C 79% 5.8 mph N9.3 kmh N 16.0 mph25.7 kmh 29.91 in1012.9 mb - 0.00 in0.0 mm 0.00 in0.0 mm
04:15 AM 71.7°F22.1°C 64.9°F18.3°C 79% 3.1 mph NNE5.0 kmh NNE 4.0 mph6.4 kmh 29.92 in1013.2 mb - 0.00 in0.0 mm 0.00 in0.0 mm
04:30 AM 71.6°F22.0°C 64.7°F18.2°C 79% 3.6 mph ENE5.8 kmh ENE 6.0 mph9.7 kmh 29.92 in1013.2 mb - 0.00 in0.0 mm 0.00 in0.0 mm
04:45 AM 71.6°F22.0°C 64.7°F18.2°C 79% 3.6 mph N5.8 kmh N 11.0 mph17.7 kmh 29.92 in1013.2 mb - 0.00 in0.0 mm 0.00 in0.0 mm
05:00 AM 71.5°F21.9°C 64.7°F18.2°C 79% 6.2 mph NW10.0 kmh NW 10.0 mph16.1 kmh 29.92 in1013.2 mb - 0.00 in0.0 mm 0.00 in0.0 mm
05:15 AM 71.7°F22.1°C 64.5°F18.1°C 78% 7.0 mph N11.3 kmh N 10.0 mph16.1 kmh 29.92 in1013.2 mb - 0.00 in0.0 mm 0.00 in0.0 mm
05:30 AM 71.7°F22.1°C 64.5°F18.1°C 78% 3.1 mph W5.0 kmh W 5.0 mph8.0 kmh 29.93 in1013.5 mb - 0.00 in0.0 mm 0.00 in0.0 mm
05:45 AM 71.5°F21.9°C 64.3°F17.9°C 78% 4.7 mph N7.6 kmh N 9.0 mph14.5 kmh 29.93 in1013.5 mb - 0.00 in0.0 mm 0.00 in0.0 mm
06:00 AM 71.5°F21.9°C 64.3°F17.9°C 78% 9.5 mph N15.3 kmh N 15.0 mph24.1 kmh 29.93 in1013.5 mb - 0.00 in0.0 mm 0.00 in0.0 mm
06:15 AM 71.5°F21.9°C 63.9°F17.7°C 77% 2.1 mph W3.4 kmh W 6.0 mph9.7 kmh 29.94 in1013.9 mb - 0.00 in0.0 mm 0.00 in0.0 mm
06:30 AM 71.3°F21.8°C 63.7°F17.6°C 77% 4.5 mph NNE7.2 kmh NNE 7.0 mph11.3 kmh 29.94 in1013.9 mb - 0.00 in0.0 mm 0.00 in0.0 mm
06:45 AM 71.0°F21.7°C 63.8°F17.7°C 78% 2.6 mph W4.2 kmh W 3.0 mph4.8 kmh 29.95 in1014.2 mb - 0.00 in0.0 mm 0.00 in0.0 mm
07:00 AM 70.8°F21.6°C 63.6°F17.6°C 78% 2.8 mph N4.5 kmh N 9.0 mph14.5 kmh 29.96 in1014.6 mb - 0.00 in0.0 mm 0.00 in0.0 mm
07:15 AM 70.7°F21.5°C 63.9°F17.7°C 79% 2.4 mph WNW3.9 kmh WNW 4.0 mph6.4 kmh 29.97 in1014.9 mb - 0.00 in0.0 mm 0.00 in0.0 mm
07:30 AM 70.7°F21.5°C 63.5°F17.5°C 78% 4.2 mph WNW6.8 kmh WNW 6.0 mph9.7 kmh 29.97 in1014.9 mb - 0.00 in0.0 mm 0.00 in0.0 mm
07:45 AM 70.9°F21.6°C 63.7°F17.6°C 78% 1.5 mph N2.4 kmh N 1.0 mph1.6 kmh 29.97 in1014.9 mb - 0.00 in0.0 mm 0.00 in0.0 mm
08:00 AM 71.0°F21.7°C 63.8°F17.7°C 78% 2.7 mph E4.3 kmh E 5.0 mph8.0 kmh 29.98 in1015.2 mb - 0.00 in0.0 mm 0.00 in0.0 mm
08:15 AM 70.9°F21.6°C 63.7°F17.6°C 78% 5.5 mph NNW8.9 kmh NNW 8.0 mph12.9 kmh 29.97 in1014.9 mb - 0.00 in0.0 mm 0.00 in0.0 mm
08:30 AM 70.9°F21.6°C 63.7°F17.6°C 78% 5.5 mph N8.9 kmh N 15.0 mph24.1 kmh 29.98 in1015.2 mb - 0.00 in0.0 mm 0.00 in0.0 mm
08:45 AM 70.9°F21.6°C 64.1°F17.8°C 79% 2.7 mph NW4.3 kmh NW 6.0 mph9.7 kmh 29.98 in1015.2 mb - 0.00 in0.0 mm 0.00 in0.0 mm
09:00 AM 71.0°F21.7°C 63.8°F17.7°C 78% 4.3 mph NW6.9 kmh NW 6.0 mph9.7 kmh 29.99 in1015.6 mb - 0.00 in0.0 mm 0.00 in0.0 mm
09:15 AM 71.2°F21.8°C 64.0°F17.8°C 78% 4.4 mph N7.1 kmh N 7.0 mph11.3 kmh 29.99 in1015.6 mb - 0.00 in0.0 mm 0.00 in0.0 mm
09:30 AM 71.5°F21.9°C 64.6°F18.1°C 79% 4.1 mph N6.6 kmh N 8.0 mph12.9 kmh 29.99 in1015.6 mb - 0.00 in0.0 mm 0.00 in0.0 mm
09:45 AM 71.7°F22.1°C 64.5°F18.1°C 78% 4.9 mph NE7.9 kmh NE 11.0 mph17.7 kmh 29.99 in1015.6 mb - 0.00 in0.0 mm 0.00 in0.0 mm
10:00 AM 71.7°F22.1°C 64.1°F17.8°C 77% 3.0 mph NE4.8 kmh NE 4.0 mph6.4 kmh 30.00 in1015.9 mb - 0.00 in0.0 mm 0.00 in0.0 mm
10:15 AM 71.9°F22.2°C 64.7°F18.2°C 78% 2.4 mph WNW3.9 kmh WNW 9.0 mph14.5 kmh 29.99 in1015.6 mb - 0.00 in0.0 mm 0.00 in0.0 mm
10:30 AM 72.6°F22.6°C 65.0°F18.3°C 77% 8.4 mph WNW13.5 kmh WNW 17.0 mph27.4 kmh 30.00 in1015.9 mb - 0.00 in0.0 mm 0.00 in0.0 mm
10:45 AM 73.3°F22.9°C 64.9°F18.3°C 75% 4.0 mph N6.4 kmh N 10.0 mph16.1 kmh 30.00 in1015.9 mb - 0.00 in0.0 mm 0.00 in0.0 mm
11:00 AM 73.9°F23.3°C 65.5°F18.6°C 75% 5.8 mph E9.3 kmh E 11.0 mph17.7 kmh 30.00 in1015.9 mb - 0.00 in0.0 mm 0.00 in0.0 mm
11:15 AM 73.9°F23.3°C 65.1°F18.4°C 74% 2.2 mph NNE3.5 kmh NNE 3.0 mph4.8 kmh 30.00 in1015.9 mb - 0.00 in0.0 mm 0.00 in0.0 mm
11:30 AM 74.0°F23.3°C 65.6°F18.7°C 75% 2.8 mph NNE4.5 kmh NNE 10.0 mph16.1 kmh 30.00 in1015.9 mb - 0.00 in0.0 mm 0.00 in0.0 mm
11:45 AM 73.8°F23.2°C 64.6°F18.1°C 73% 6.0 mph NE9.7 kmh NE 8.0 mph12.9 kmh 30.00 in1015.9 mb - 0.00 in0.0 mm 0.00 in0.0 mm
12:00 PM 73.7°F23.2°C 65.3°F18.5°C 75% 3.7 mph WNW6.0 kmh WNW 10.0 mph16.1 kmh 30.00 in1015.9 mb - 0.00 in0.0 mm 0.00 in0.0 mm
12:15 PM 73.7°F23.2°C 65.3°F18.5°C 75% 3.7 mph NW6.0 kmh NW 8.0 mph12.9 kmh 30.00 in1015.9 mb - 0.00 in0.0 mm 0.00 in0.0 mm
12:30 PM 73.8°F23.2°C 65.0°F18.3°C 74% 3.6 mph NNE5.8 kmh NNE 8.0 mph12.9 kmh 29.99 in1015.6 mb - 0.00 in0.0 mm 0.00 in0.0 mm
12:45 PM 73.9°F23.3°C 65.1°F18.4°C 74% 8.5 mph WNW13.7 kmh WNW 12.0 mph19.3 kmh 29.99 in1015.6 mb - 0.00 in0.0 mm 0.00 in0.0 mm
01:00 PM 74.0°F23.3°C 64.8°F18.2°C 73% 4.8 mph W7.7 kmh W 8.0 mph12.9 kmh 29.98 in1015.2 mb - 0.00 in0.0 mm 0.00 in0.0 mm
01:15 PM 74.2°F23.4°C 65.0°F18.3°C 73% 4.5 mph NNE7.2 kmh NNE 5.0 mph8.0 kmh 29.98 in1015.2 mb - 0.00 in0.0 mm 0.00 in0.0 mm
01:30 PM 74.5°F23.6°C 65.7°F18.7°C 74% 3.1 mph N5.0 kmh N 3.0 mph4.8 kmh 29.98 in1015.2 mb - 0.00 in0.0 mm 0.00 in0.0 mm
01:45 PM 74.8°F23.8°C 65.6°F18.7°C 73% 4.7 mph W7.6 kmh W 5.0 mph8.0 kmh 29.98 in1015.2 mb - 0.00 in0.0 mm 0.00 in0.0 mm
02:00 PM 74.8°F23.8°C 66.0°F18.9°C 74% 3.6 mph S5.8 kmh S 11.0 mph17.7 kmh 29.98 in1015.2 mb - 0.00 in0.0 mm 0.00 in0.0 mm
02:15 PM 74.8°F23.8°C 65.1°F18.4°C 72% 5.6 mph NW9.0 kmh NW 8.0 mph12.9 kmh 29.98 in1015.2 mb - 0.00 in0.0 mm 0.00 in0.0 mm
02:30 PM 74.8°F23.8°C 64.8°F18.2°C 71% 6.0 mph ENE9.7 kmh ENE 12.0 mph19.3 kmh 29.98 in1015.2 mb - 0.00 in0.0 mm 0.00 in0.0 mm
02:45 PM 74.8°F23.8°C 64.4°F18.0°C 70% 4.6 mph N7.4 kmh N 8.0 mph12.9 kmh 29.98 in1015.2 mb - 0.00 in0.0 mm 0.00 in0.0 mm
03:00 PM 75.0°F23.9°C 65.0°F18.3°C 71% 2.1 mph WNW3.4 kmh WNW 4.0 mph6.4 kmh 29.98 in1015.2 mb - 0.00 in0.0 mm 0.00 in0.0 mm
03:15 PM 75.0°F23.9°C 65.0°F18.3°C 71% 2.8 mph NNW4.5 kmh NNW 5.0 mph8.0 kmh 29.98 in1015.2 mb - 0.00 in0.0 mm 0.00 in0.0 mm
03:30 PM 74.8°F23.8°C 64.4°F18.0°C 70% 4.0 mph W6.4 kmh W 8.0 mph12.9 kmh 29.98 in1015.2 mb - 0.00 in0.0 mm 0.00 in0.0 mm
03:45 PM 74.8°F23.8°C 64.4°F18.0°C 70% 3.5 mph WNW5.6 kmh WNW 10.0 mph16.1 kmh 29.98 in1015.2 mb - 0.00 in0.0 mm 0.00 in0.0 mm
04:00 PM 74.7°F23.7°C 64.3°F17.9°C 70% 4.8 mph N7.7 kmh N 8.0 mph12.9 kmh 29.98 in1015.2 mb - 0.00 in0.0 mm 0.00 in0.0 mm
04:15 PM 74.7°F23.7°C 64.3°F17.9°C 70% 2.1 mph N3.4 kmh N 3.0 mph4.8 kmh 29.98 in1015.2 mb - 0.00 in0.0 mm 0.00 in0.0 mm
04:30 PM 74.7°F23.7°C 64.6°F18.1°C 71% 1.0 mph SSE1.6 kmh SSE 1.0 mph1.6 kmh 29.98 in1015.2 mb - 0.00 in0.0 mm 0.00 in0.0 mm
04:45 PM 74.5°F23.6°C 64.9°F18.3°C 72% 2.0 mph NW3.2 kmh NW 4.0 mph6.4 kmh 29.99 in1015.6 mb - 0.00 in0.0 mm 0.00 in0.0 mm
05:00 PM 74.3°F23.5°C 64.7°F18.2°C 72% 3.2 mph NE5.1 kmh NE 6.0 mph9.7 kmh 29.99 in1015.6 mb - 0.00 in0.0 mm 0.00 in0.0 mm
05:15 PM 74.0°F23.3°C 63.6°F17.6°C 70% 2.1 mph N3.4 kmh N 2.0 mph3.2 kmh 29.99 in1015.6 mb - 0.00 in0.0 mm 0.00 in0.0 mm
05:30 PM 73.7°F23.2°C 61.6°F16.4°C 66% 2.1 mph NE3.4 kmh NE 2.0 mph3.2 kmh 29.99 in1015.6 mb - 0.00 in0.0 mm 0.00 in0.0 mm
05:45 PM 73.4°F23.0°C 60.9°F16.1°C 65% 2.8 mph WNW4.5 kmh WNW 3.0 mph4.8 kmh 29.99 in1015.6 mb - 0.00 in0.0 mm 0.00 in0.0 mm
06:00 PM 72.8°F22.7°C 59.9°F15.5°C 64% 2.4 mph W3.9 kmh W 7.0 mph11.3 kmh 29.99 in1015.6 mb - 0.00 in0.0 mm 0.00 in0.0 mm
06:15 PM 72.2°F22.3°C 59.8°F15.4°C 65% 1.8 mph W2.9 kmh W 2.0 mph3.2 kmh 29.99 in1015.6 mb - 0.00 in0.0 mm 0.00 in0.0 mm
06:30 PM 71.7°F22.1°C 59.7°F15.4°C 66% 1.8 mph N2.9 kmh N 2.0 mph3.2 kmh 30.00 in1015.9 mb - 0.00 in0.0 mm 0.00 in0.0 mm
06:45 PM 70.9°F21.6°C 59.8°F15.4°C 68% 1.7 mph N2.7 kmh N 2.0 mph3.2 kmh 30.00 in1015.9 mb - 0.00 in0.0 mm 0.00 in0.0 mm
07:00 PM 69.8°F21.0°C 59.6°F15.3°C 70% 0.9 mph NW1.4 kmh NW 1.0 mph1.6 kmh 30.00 in1015.9 mb - 0.00 in0.0 mm 0.00 in0.0 mm
07:15 PM 69.0°F20.6°C 60.0°F15.6°C 73% 1.2 mph NW1.9 kmh NW 2.0 mph3.2 kmh 30.00 in1015.9 mb - 0.00 in0.0 mm 0.00 in0.0 mm
07:30 PM 68.2°F20.1°C 59.2°F15.1°C 73% 3.7 mph WSW6.0 kmh WSW 6.0 mph9.7 kmh 30.00 in1015.9 mb - 0.00 in0.0 mm 0.00 in0.0 mm
07:45 PM 68.0°F20.0°C 59.0°F15.0°C 73% 2.4 mph NNE3.9 kmh NNE 5.0 mph8.0 kmh 30.00 in1015.9 mb - 0.00 in0.0 mm 0.00 in0.0 mm
08:00 PM 68.5°F20.3°C 58.7°F14.8°C 71% 5.1 mph N8.2 kmh N 12.0 mph19.3 kmh 30.00 in1015.9 mb - 0.00 in0.0 mm 0.00 in0.0 mm
08:15 PM 69.2°F20.7°C 58.1°F14.5°C 68% 3.8 mph WNW6.1 kmh WNW 11.0 mph17.7 kmh 30.02 in1016.6 mb - 0.00 in0.0 mm 0.00 in0.0 mm
08:30 PM 69.6°F20.9°C 58.2°F14.6°C 67% 3.0 mph N4.8 kmh N 7.0 mph11.3 kmh 30.01 in1016.3 mb - 0.00 in0.0 mm 0.00 in0.0 mm
08:45 PM 69.6°F20.9°C 58.2°F14.6°C 67% 4.0 mph NNW6.4 kmh NNW 4.0 mph6.4 kmh 30.01 in1016.3 mb - 0.00 in0.0 mm 0.00 in0.0 mm
09:00 PM 69.5°F20.8°C 58.0°F14.4°C 67% 3.5 mph W5.6 kmh W 9.0 mph14.5 kmh 30.02 in1016.6 mb - 0.00 in0.0 mm 0.00 in0.0 mm
09:15 PM 69.4°F20.8°C 58.0°F14.4°C 67% 5.5 mph NNE8.9 kmh NNE 10.0 mph16.1 kmh 30.01 in1016.3 mb - 0.00 in0.0 mm 0.00 in0.0 mm
09:30 PM 69.5°F20.8°C 56.8°F13.8°C 64% 3.6 mph ENE5.8 kmh ENE 8.0 mph12.9 kmh 30.01 in1016.3 mb - 0.00 in0.0 mm 0.00 in0.0 mm
09:45 PM 69.3°F20.7°C 57.0°F13.9°C 65% 4.3 mph N6.9 kmh N 12.0 mph19.3 kmh 30.02 in1016.6 mb - 0.00 in0.0 mm 0.00 in0.0 mm
10:00 PM 68.9°F20.5°C 57.1°F13.9°C 66% 4.1 mph WNW6.6 kmh WNW 4.0 mph6.4 kmh 30.02 in1016.6 mb - 0.00 in0.0 mm 0.00 in0.0 mm
10:15 PM 68.5°F20.3°C 57.1°F13.9°C 67% 5.1 mph W8.2 kmh W 9.0 mph14.5 kmh 30.02 in1016.6 mb - 0.00 in0.0 mm 0.00 in0.0 mm
10:30 PM 68.1°F20.1°C 56.7°F13.7°C 67% 2.6 mph WNW4.2 kmh WNW 3.0 mph4.8 kmh 30.02 in1016.6 mb - 0.00 in0.0 mm 0.00 in0.0 mm
10:45 PM 67.7°F19.8°C 55.9°F13.3°C 66% 2.7 mph N4.3 kmh N 3.0 mph4.8 kmh 30.02 in1016.6 mb - 0.00 in0.0 mm 0.00 in0.0 mm
11:00 PM 67.6°F19.8°C 55.4°F13.0°C 65% 6.5 mph NW10.5 kmh NW 12.0 mph19.3 kmh 30.02 in1016.6 mb - 0.00 in0.0 mm 0.00 in0.0 mm
11:15 PM 67.5°F19.7°C 55.3°F12.9°C 65% 4.2 mph N6.8 kmh N 6.0 mph9.7 kmh 30.01 in1016.3 mb - 0.00 in0.0 mm 0.00 in0.0 mm
11:30 PM 67.4°F19.7°C 54.8°F12.7°C 64% 3.0 mph W4.8 kmh W 4.0 mph6.4 kmh 30.01 in1016.3 mb - 0.00 in0.0 mm 0.00 in0.0 mm
11:45 PM 67.4°F19.7°C 54.4°F12.4°C 63% 5.5 mph N8.9 kmh N 11.0 mph17.7 kmh 30.01 in1016.3 mb - 0.00 in0.0 mm 0.00 in0.0 mm